createdAt,value
2018-04-02T00:00:41.961Z,99.99
2018-04-02T00:01:41.975Z,99.99
2018-04-02T00:02:41.730Z,99.99
2018-04-02T00:03:42.005Z,99.99
2018-04-02T00:04:42.018Z,99.99
2018-04-02T00:05:42.135Z,99.99
2018-04-02T00:06:42.047Z,99.99
2018-04-02T00:07:41.801Z,99.99
2018-04-02T00:08:42.075Z,99.99
2018-04-02T00:09:42.090Z,99.99
2018-04-02T00:10:56.860Z,99.99
2018-04-02T00:11:42.118Z,99.99
2018-04-02T00:12:42.130Z,99.99
2018-04-02T00:13:42.145Z,99.99
2018-04-02T00:14:42.159Z,99.99
2018-04-02T00:15:42.174Z,99.99
2018-04-02T00:17:42.207Z,99.99
2018-04-02T00:18:41.956Z,99.99
2018-04-02T00:19:42.234Z,99.99
2018-04-02T00:20:42.243Z,99.99
2018-04-02T00:21:42.358Z,99.99
2018-04-02T00:22:42.271Z,99.99
2018-04-02T00:23:42.285Z,99.99
2018-04-02T00:24:42.300Z,99.99
2018-04-02T00:25:42.314Z,99.99
2018-04-02T00:26:56.986Z,99.99
2018-04-02T00:27:42.341Z,99.99
2018-04-02T00:28:42.096Z,99.99
2018-04-02T00:29:42.111Z,99.99
2018-04-02T00:30:42.385Z,99.99
2018-04-02T00:31:42.398Z,99.99
2018-04-02T00:32:42.416Z,99.99
2018-04-02T00:33:42.429Z,99.99
2018-04-02T00:34:42.441Z,99.99
2018-04-02T00:35:42.454Z,99.99
2018-04-02T00:36:42.468Z,99.99
2018-04-02T00:37:42.488Z,99.99
2018-04-02T00:38:42.496Z,99.99
2018-04-02T00:39:42.250Z,99.99
2018-04-02T00:40:42.523Z,99.99
2018-04-02T00:41:42.538Z,99.99
2018-04-02T00:42:57.208Z,99.99
2018-04-02T00:43:42.655Z,99.99
2018-04-02T00:44:42.580Z,99.99
2018-04-02T00:45:42.336Z,99.99
2018-04-02T00:46:42.607Z,99.99
2018-04-02T00:47:42.626Z,99.99
2018-04-02T00:48:42.635Z,99.99
2018-04-02T00:50:42.668Z,99.99
2018-04-02T00:51:42.680Z,99.99
2018-04-02T00:52:42.691Z,99.99
2018-04-02T00:53:42.714Z,99.99
2018-04-02T00:54:42.717Z,99.99
2018-04-02T00:55:42.736Z,99.99
2018-04-02T00:56:42.753Z,99.99
2018-04-02T00:57:42.762Z,99.99
2018-04-02T00:58:57.430Z,99.99
2018-04-02T00:59:42.787Z,99.99
2018-04-02T01:00:42.542Z,99.99
2018-04-02T01:01:42.815Z,99.99
2018-04-02T01:02:42.829Z,99.99
2018-04-02T01:03:42.584Z,99.99
2018-04-02T01:04:42.857Z,99.99
2018-04-02T01:06:42.890Z,99.99
2018-04-02T01:07:42.898Z,99.99
2018-04-02T01:08:42.919Z,99.99
2018-04-02T01:09:42.930Z,99.99
2018-04-02T01:11:42.953Z,99.99
2018-04-02T01:12:43.018Z,99.99
2018-04-02T01:13:57.639Z,99.99
2018-04-02T01:14:42.999Z,99.99
2018-04-02T01:15:43.008Z,99.99
2018-04-02T01:16:43.024Z,99.99
2018-04-02T01:17:43.040Z,99.99
2018-04-02T01:18:43.053Z,99.99
2018-04-02T01:19:43.067Z,99.99
2018-04-02T01:20:43.083Z,99.99
2018-04-02T01:21:42.833Z,99.99
2018-04-02T01:22:43.118Z,99.99
2018-04-02T01:23:43.120Z,99.99
2018-04-02T01:24:43.139Z,99.99
2018-04-02T01:25:43.146Z,99.99
2018-04-02T01:26:43.161Z,99.99
2018-04-02T01:27:43.175Z,99.99
2018-04-02T01:28:43.405Z,99.99
2018-04-02T01:29:43.203Z,99.99
2018-04-02T01:30:43.216Z,99.99
2018-04-02T01:31:43.233Z,99.99
2018-04-02T01:33:43.257Z,99.99
2018-04-02T01:34:43.269Z,99.99
2018-04-02T01:36:43.298Z,99.99
2018-04-02T01:37:43.052Z,99.99
2018-04-02T01:38:43.331Z,99.99
2018-04-02T01:39:43.355Z,99.99
2018-04-02T01:40:43.096Z,99.99
2018-04-02T01:41:43.369Z,99.99
2018-04-02T01:42:43.385Z,99.99
2018-04-02T01:43:43.407Z,99.99
2018-04-02T01:44:43.148Z,99.99
2018-04-02T01:45:58.079Z,99.99
2018-04-02T01:46:43.438Z,99.99
2018-04-02T01:47:43.451Z,99.99
2018-04-02T01:48:43.463Z,99.99
2018-04-02T01:49:43.484Z,99.99
2018-04-02T01:50:43.491Z,99.99
2018-04-02T01:51:43.505Z,99.99
2018-04-02T01:53:43.532Z,99.99
2018-04-02T01:54:43.547Z,99.99
2018-04-02T01:55:43.560Z,99.99
2018-04-02T01:56:43.574Z,99.99
2018-04-02T01:57:43.587Z,99.99
2018-04-02T01:58:43.600Z,99.99
2018-04-02T01:59:43.614Z,99.99
2018-04-02T02:00:43.628Z,99.99
2018-04-02T02:01:58.300Z,99.99
2018-04-02T02:02:43.658Z,99.99
2018-04-02T02:03:43.670Z,99.99
2018-04-02T02:04:43.424Z,99.99
2018-04-02T02:05:43.697Z,99.99
2018-04-02T02:06:43.709Z,99.99
2018-04-02T02:07:43.724Z,99.99
2018-04-02T02:09:43.752Z,99.99
2018-04-02T02:10:43.506Z,99.99
2018-04-02T02:11:43.780Z,99.99
2018-04-02T02:12:43.793Z,99.99
2018-04-02T02:13:43.855Z,99.99
2018-04-02T02:14:43.819Z,99.99
2018-04-02T02:15:43.833Z,99.99
2018-04-02T02:16:43.857Z,99.99
2018-04-02T02:17:58.518Z,99.99
2018-04-02T02:18:43.874Z,99.99
2018-04-02T02:19:43.888Z,99.99
2018-04-02T02:20:43.907Z,99.99
2018-04-02T02:21:43.914Z,99.99
2018-04-02T02:23:43.942Z,99.99
2018-04-02T02:25:43.973Z,99.99
2018-04-02T02:26:43.984Z,99.99
2018-04-02T02:27:43.998Z,99.99
2018-04-02T02:29:44.025Z,99.99
2018-04-02T02:31:44.057Z,99.99
2018-04-02T02:32:43.806Z,99.99
2018-04-02T02:33:58.737Z,99.99
2018-04-02T02:34:44.093Z,99.99
2018-04-02T02:36:43.861Z,99.99
2018-04-02T02:37:44.143Z,99.99
2018-04-02T02:38:44.148Z,99.99
2018-04-02T02:39:44.179Z,99.99
2018-04-02T02:40:44.182Z,99.99
2018-04-02T02:41:44.192Z,99.99
2018-04-02T02:42:44.217Z,99.99
2018-04-02T02:43:44.216Z,99.99
2018-04-02T02:44:44.233Z,99.99
2018-04-02T02:45:43.983Z,99.99
2018-04-02T02:46:44.259Z,99.99
2018-04-02T02:47:44.275Z,99.99
2018-04-02T02:48:58.941Z,99.99
2018-04-02T02:49:44.298Z,99.99
2018-04-02T02:51:44.334Z,99.99
2018-04-02T02:52:44.335Z,99.99
2018-04-02T02:53:44.094Z,99.99
2018-04-02T02:56:44.396Z,99.99
2018-04-02T02:57:44.408Z,99.99
2018-04-02T02:58:44.430Z,99.99
2018-04-02T02:59:44.431Z,99.99
2018-04-02T03:00:44.462Z,99.99
2018-04-02T03:01:44.459Z,99.99
2018-04-02T03:02:44.474Z,99.99
2018-04-02T03:03:44.488Z,99.99
2018-04-02T03:04:44.602Z,99.99
2018-04-02T03:05:44.513Z,99.99
2018-04-02T03:06:44.526Z,99.99
2018-04-02T03:07:44.541Z,99.99
2018-04-02T03:09:44.306Z,99.99
2018-04-02T03:10:44.588Z,99.99
2018-04-02T03:13:44.626Z,99.99
2018-04-02T03:14:44.637Z,99.99
2018-04-02T03:15:44.657Z,99.99
2018-04-02T03:16:44.402Z,99.99
2018-04-02T03:17:44.674Z,99.99
2018-04-02T03:18:44.688Z,99.99
2018-04-02T03:19:44.701Z,99.99
2018-04-02T03:20:59.372Z,99.99
2018-04-02T03:21:44.728Z,99.99
2018-04-02T03:22:44.742Z,99.99
2018-04-02T03:23:44.495Z,99.99
2018-04-02T03:24:44.773Z,99.99
2018-04-02T03:25:44.788Z,99.99
2018-04-02T03:26:44.801Z,99.99
2018-04-02T03:27:44.809Z,99.99
2018-04-02T03:29:44.841Z,99.99
2018-04-02T03:30:44.852Z,99.99
2018-04-02T03:31:44.866Z,99.99
2018-04-02T03:32:44.875Z,99.99
2018-04-02T03:33:44.889Z,99.99
2018-04-02T03:34:44.906Z,99.99
2018-04-02T03:35:44.914Z,99.99
2018-04-02T03:36:59.586Z,99.99
2018-04-02T03:37:44.942Z,99.99
2018-04-02T03:38:44.954Z,99.99
2018-04-02T03:39:44.968Z,99.99
2018-04-02T03:40:44.983Z,99.99
2018-04-02T03:41:44.996Z,99.99
2018-04-02T03:42:44.757Z,99.99
2018-04-02T03:44:45.036Z,99.99
2018-04-02T03:45:45.053Z,99.99
2018-04-02T03:46:45.063Z,99.99
2018-04-02T03:47:44.819Z,99.99
2018-04-02T03:48:45.088Z,99.99
2018-04-02T03:49:44.842Z,99.99
2018-04-02T03:50:45.116Z,99.99
2018-04-02T03:51:45.133Z,99.99
2018-04-02T03:52:59.799Z,99.99
2018-04-02T03:53:45.155Z,99.99
2018-04-02T03:54:45.169Z,99.99
2018-04-02T03:55:45.187Z,99.99
2018-04-02T03:56:45.196Z,99.99
2018-04-02T03:57:45.214Z,99.99
2018-04-02T03:58:44.963Z,99.99
2018-04-02T03:59:45.290Z,99.99
2018-04-02T04:00:45.255Z,99.99
2018-04-02T04:01:45.262Z,99.99
2018-04-02T04:02:45.277Z,99.99
2018-04-02T04:03:45.288Z,99.99
2018-04-02T04:04:45.303Z,99.99
2018-04-02T04:05:45.314Z,99.99
2018-04-02T04:06:45.329Z,99.99
2018-04-02T04:07:45.341Z,99.99
2018-04-02T04:09:00.013Z,99.99
2018-04-02T04:09:45.381Z,99.99
2018-04-02T04:10:45.383Z,99.99
2018-04-02T04:11:45.395Z,99.99
2018-04-02T04:12:45.409Z,99.99
2018-04-02T04:13:45.421Z,99.99
2018-04-02T04:14:45.446Z,99.99
2018-04-02T04:15:45.446Z,99.99
2018-04-02T04:16:45.464Z,99.99
2018-04-02T04:17:45.475Z,99.99
2018-04-02T04:18:45.488Z,99.99
2018-04-02T04:19:45.501Z,99.99
2018-04-02T04:20:45.254Z,99.99
2018-04-02T04:21:45.539Z,99.99
2018-04-02T04:22:45.540Z,99.99
2018-04-02T04:24:00.212Z,99.99
2018-04-02T04:24:45.570Z,99.99
2018-04-02T04:25:45.586Z,99.99
2018-04-02T04:26:45.596Z,99.99
2018-04-02T04:27:45.607Z,99.99
2018-04-02T04:28:45.622Z,99.99
2018-04-02T04:29:45.634Z,99.99
2018-04-02T04:30:45.389Z,99.99
2018-04-02T04:31:45.662Z,99.99
2018-04-02T04:33:45.687Z,99.99
2018-04-02T04:34:45.701Z,99.99
2018-04-02T04:35:45.456Z,99.99
2018-04-02T04:36:45.735Z,99.99
2018-04-02T04:37:45.741Z,99.99
2018-04-02T04:38:45.756Z,99.99
2018-04-02T04:39:45.768Z,99.99
2018-04-02T04:40:45.531Z,99.99
2018-04-02T04:41:45.794Z,99.99
2018-04-02T04:42:45.813Z,99.99
2018-04-02T04:43:45.824Z,99.99
2018-04-02T04:44:45.834Z,99.99
2018-04-02T04:45:45.856Z,99.99
2018-04-02T04:46:45.862Z,99.99
2018-04-02T04:47:45.622Z,99.99
2018-04-02T04:48:45.895Z,99.99
2018-04-02T04:49:45.901Z,99.99
2018-04-02T04:50:45.915Z,99.99
2018-04-02T04:51:45.935Z,99.99
2018-04-02T04:52:45.940Z,99.99
2018-04-02T04:53:45.954Z,99.99
2018-04-02T04:54:45.969Z,99.99
2018-04-02T04:56:00.638Z,99.99
2018-04-02T04:56:45.735Z,99.99
2018-04-02T04:57:46.012Z,99.99
2018-04-02T04:58:46.021Z,99.99
2018-04-02T04:59:46.034Z,99.99
2018-04-02T05:00:46.047Z,99.99
2018-04-02T05:01:45.805Z,99.99
2018-04-02T05:02:46.078Z,99.99
2018-04-02T05:04:46.100Z,99.99
2018-04-02T05:05:45.854Z,99.99
2018-04-02T05:06:46.132Z,99.99
2018-04-02T05:07:46.140Z,99.99
2018-04-02T05:08:46.154Z,99.99
2018-04-02T05:09:46.167Z,99.99
2018-04-02T05:10:46.186Z,99.99
2018-04-02T05:12:00.852Z,99.99
2018-04-02T05:12:46.208Z,99.99
2018-04-02T05:13:46.221Z,99.99
2018-04-02T05:14:46.236Z,99.99
2018-04-02T05:15:45.994Z,99.99
2018-04-02T05:16:46.262Z,99.99
2018-04-02T05:17:46.021Z,99.99
2018-04-02T05:18:46.289Z,99.99
2018-04-02T05:19:46.303Z,99.99
2018-04-02T05:21:46.332Z,99.99
2018-04-02T05:22:46.406Z,99.99
2018-04-02T05:23:46.098Z,99.99
2018-04-02T05:24:46.375Z,99.99
2018-04-02T05:25:46.384Z,99.99
2018-04-02T05:26:46.139Z,99.99
2018-04-02T05:28:01.169Z,99.99
2018-04-02T05:28:46.425Z,99.99
2018-04-02T05:29:46.179Z,99.99
2018-04-02T05:32:46.220Z,99.99
2018-04-02T05:33:46.494Z,99.99
2018-04-02T05:34:46.518Z,99.99
2018-04-02T05:35:46.268Z,99.99
2018-04-02T05:36:46.533Z,99.99
2018-04-02T05:37:46.547Z,99.99
2018-04-02T05:38:46.566Z,99.99
2018-04-02T05:39:46.688Z,99.99
2018-04-02T05:40:46.329Z,99.99
2018-04-02T05:41:46.602Z,99.99
2018-04-02T05:42:46.618Z,99.99
2018-04-02T05:44:01.294Z,99.99
2018-04-02T05:44:46.653Z,99.99
2018-04-02T05:46:46.674Z,99.99
2018-04-02T05:47:46.685Z,99.99
2018-04-02T05:48:46.699Z,99.99
2018-04-02T05:49:46.722Z,99.99
2018-04-02T05:50:46.727Z,99.99
2018-04-02T05:51:46.483Z,99.99
2018-04-02T05:52:46.754Z,99.99
2018-04-02T05:53:46.767Z,99.99
2018-04-02T05:54:46.781Z,99.99
2018-04-02T05:55:46.537Z,99.99
2018-04-02T05:56:46.808Z,99.99
2018-04-02T05:57:46.827Z,99.99
2018-04-02T05:59:01.496Z,99.99
2018-04-02T05:59:46.901Z,99.99
2018-04-02T06:00:46.612Z,99.99
2018-04-02T06:01:46.880Z,99.99
2018-04-02T06:02:46.639Z,99.99
2018-04-02T06:03:46.907Z,99.99
2018-04-02T06:04:46.922Z,99.99
2018-04-02T06:05:46.677Z,99.99
2018-04-02T06:06:46.954Z,99.99
2018-04-02T06:08:46.984Z,99.99
2018-04-02T06:09:46.993Z,99.99
2018-04-02T06:10:47.009Z,99.99
2018-04-02T06:11:47.020Z,99.99
2018-04-02T06:12:47.034Z,99.99
2018-04-02T06:13:47.051Z,99.99
2018-04-02T06:14:47.062Z,99.99
2018-04-02T06:15:47.078Z,99.99
2018-04-02T06:16:47.104Z,99.99
2018-04-02T06:17:47.118Z,99.99
2018-04-02T06:18:47.121Z,99.99
2018-04-02T06:19:46.876Z,99.99
2018-04-02T06:20:47.149Z,99.99
2018-04-02T06:21:47.163Z,99.99
2018-04-02T06:22:47.182Z,99.99
2018-04-02T06:23:47.191Z,99.99
2018-04-02T06:24:47.214Z,99.99
2018-04-02T06:25:47.222Z,99.99
2018-04-02T06:26:47.243Z,99.99
2018-04-02T06:27:47.257Z,99.99
2018-04-02T06:28:47.365Z,99.99
2018-04-02T06:29:47.281Z,99.99
2018-04-02T06:31:01.953Z,99.99
2018-04-02T06:31:47.311Z,99.99
2018-04-02T06:32:47.324Z,99.99
2018-04-02T06:33:47.440Z,99.99
2018-04-02T06:34:47.354Z,99.99
2018-04-02T06:35:47.379Z,99.99
2018-04-02T06:36:47.386Z,99.99
2018-04-02T06:37:47.400Z,99.99
2018-04-02T06:38:47.414Z,99.99
2018-04-02T06:39:47.430Z,99.99
2018-04-02T06:40:47.447Z,99.99
2018-04-02T06:41:47.458Z,99.99
2018-04-02T06:42:47.215Z,99.99
2018-04-02T06:43:47.489Z,99.99
2018-04-02T06:44:47.507Z,99.99
2018-04-02T06:45:47.519Z,99.99
2018-04-02T06:47:02.193Z,99.99
2018-04-02T06:47:47.565Z,99.99
2018-04-02T06:48:47.569Z,99.99
2018-04-02T06:50:47.339Z,99.99
2018-04-02T06:51:47.612Z,99.99
2018-04-02T06:52:47.630Z,99.99
2018-04-02T06:53:47.386Z,99.99
2018-04-02T06:54:47.665Z,99.99
2018-04-02T06:56:47.697Z,99.99
2018-04-02T06:57:47.451Z,99.99
2018-04-02T06:58:47.733Z,99.99
2018-04-02T06:59:47.747Z,99.44
2018-04-02T07:00:47.761Z,98.92
2018-04-02T07:01:47.785Z,98.39
2018-04-02T07:03:02.453Z,97.83
2018-04-02T07:03:47.812Z,97.92
2018-04-02T07:04:47.672Z,98.87
2018-04-02T07:05:47.848Z,99.34
2018-04-02T07:06:47.866Z,98.63
2018-04-02T07:07:47.625Z,97.4
2018-04-02T07:08:47.904Z,97.21
2018-04-02T07:09:47.662Z,97.4
2018-04-02T07:10:47.937Z,97.97
2018-04-02T07:11:47.954Z,98.07
2018-04-02T07:12:47.974Z,98.07
2018-04-02T07:13:47.990Z,96.17
2018-04-02T07:14:48.009Z,95.6
2018-04-02T07:15:48.033Z,96.17
2018-04-02T07:16:48.046Z,96.83
2018-04-02T07:17:48.063Z,96.17
2018-04-02T07:19:02.740Z,95.6
2018-04-02T07:19:48.099Z,95.74
2018-04-02T07:20:48.117Z,96.08
2018-04-02T07:21:47.880Z,96.03
2018-04-02T07:22:48.155Z,95.36
2018-04-02T07:23:48.175Z,96.78
2018-04-02T07:24:48.290Z,97.07
2018-04-02T07:26:47.967Z,96.55
2018-04-02T07:27:48.246Z,95.79
2018-04-02T07:28:48.271Z,95.31
2018-04-02T07:29:48.283Z,95.12
2018-04-02T07:30:48.302Z,95.5
2018-04-02T07:31:48.322Z,93.46
2018-04-02T07:32:48.343Z,92.04
2018-04-02T07:34:03.024Z,90.95
2018-04-02T07:34:48.388Z,90.38
2018-04-02T07:35:48.405Z,90.76
2018-04-02T07:36:48.428Z,90.33
2018-04-02T07:37:48.450Z,89
2018-04-02T07:38:48.478Z,87.05
2018-04-02T07:39:48.496Z,86.19
2018-04-02T07:40:48.258Z,85.91
2018-04-02T07:41:48.547Z,85.57
2018-04-02T07:42:48.566Z,85.66
2018-04-02T07:43:48.588Z,84.05
2018-04-02T07:44:48.612Z,82.71
2018-04-02T07:45:48.636Z,83.19
2018-04-02T07:46:48.714Z,82.43
2018-04-02T07:47:48.429Z,82.34
2018-04-02T07:48:48.710Z,81.96
2018-04-02T07:49:48.475Z,82.15
2018-04-02T07:50:48.758Z,81.77
2018-04-02T07:51:48.782Z,80.91
2018-04-02T07:52:48.806Z,82.34
2018-04-02T07:53:48.832Z,81.86
2018-04-02T07:54:48.959Z,82.62
2018-04-02T07:55:48.880Z,82.81
2018-04-02T07:58:48.953Z,80.76
2018-04-02T07:59:48.985Z,80.47
2018-04-02T08:00:49.011Z,80.38
2018-04-02T08:01:49.026Z,79.38
2018-04-02T08:02:49.260Z,79.09
2018-04-02T08:03:49.084Z,77.66
2018-04-02T08:04:49.101Z,78.04
2018-04-02T08:06:03.787Z,78.14
2018-04-02T08:06:49.153Z,78.04
2018-04-02T08:07:49.178Z,78.23
2018-04-02T08:08:49.199Z,77.61
2018-04-02T08:09:49.269Z,76.94
2018-04-02T08:10:49.252Z,76.75
2018-04-02T08:11:49.276Z,75.23
2018-04-02T08:12:49.300Z,74.46
2018-04-02T08:14:49.352Z,74.9
2018-04-02T08:15:49.439Z,75.09
2018-04-02T08:16:49.406Z,73.95
2018-04-02T08:17:49.459Z,74.71
2018-04-02T08:18:49.459Z,74.46
2018-04-02T08:19:49.477Z,75.23
2018-04-02T08:20:49.508Z,74.27
2018-04-02T08:22:04.187Z,74.56
2018-04-02T08:22:49.553Z,73.65
2018-04-02T08:23:49.576Z,73.36
2018-04-02T08:24:49.601Z,72.5
2018-04-02T08:25:49.628Z,71.36
2018-04-02T08:26:49.651Z,71.73
2018-04-02T08:27:49.419Z,71.39
2018-04-02T08:29:49.731Z,71.01
2018-04-02T08:30:49.754Z,70.44
2018-04-02T08:31:49.783Z,70.97
2018-04-02T08:32:49.806Z,71.55
2018-04-02T08:33:49.672Z,71.98
2018-04-02T08:34:49.858Z,71.98
2018-04-02T08:35:49.881Z,71.73
2018-04-02T08:36:49.647Z,71.17
2018-04-02T08:38:04.590Z,71.17
2018-04-02T08:38:50.122Z,71.26
2018-04-02T08:39:49.981Z,70.97
2018-04-02T08:40:50.008Z,71.26
2018-04-02T08:41:50.037Z,72.56
2018-04-02T08:42:50.063Z,73.22
2018-04-02T08:43:50.084Z,71.83
2018-04-02T08:44:50.117Z,72.75
2018-04-02T08:45:50.137Z,72.12
2018-04-02T08:46:49.896Z,71.2
2018-04-02T08:47:50.180Z,69.77
2018-04-02T08:48:50.208Z,69.2
2018-04-02T08:49:50.229Z,68.82
2018-04-02T08:50:50.264Z,69.1
2018-04-02T08:51:50.282Z,68.91
2018-04-02T08:52:50.308Z,70.02
2018-04-02T08:54:04.995Z,70.4
2018-04-02T08:54:50.359Z,70.5
2018-04-02T08:56:50.404Z,69.93
2018-04-02T08:57:50.429Z,69.68
2018-04-02T08:58:50.196Z,68.72
2018-04-02T08:59:50.477Z,67.52
2018-04-02T09:00:50.245Z,67.71
2018-04-02T09:01:50.531Z,67.52
2018-04-02T09:02:50.554Z,68.09
2018-04-02T09:03:50.578Z,67.23
2018-04-02T09:04:50.604Z,65.89
2018-04-02T09:05:50.370Z,67.86
2018-04-02T09:06:50.660Z,66.82
2018-04-02T09:07:50.681Z,66.38
2018-04-02T09:09:05.365Z,67.2
2018-04-02T09:09:50.730Z,67.2
2018-04-02T09:11:50.779Z,68.05
2018-04-02T09:12:50.810Z,68.44
2018-04-02T09:13:50.835Z,68.66
2018-04-02T09:14:50.596Z,67.99
2018-04-02T09:15:50.882Z,67.29
2018-04-02T09:17:50.929Z,68.65
2018-04-02T09:18:50.951Z,69.23
2018-04-02T09:19:50.985Z,70.62
2018-04-02T09:20:51.002Z,70.37
2018-04-02T09:21:51.057Z,70.94
2018-04-02T09:22:50.791Z,69.7
2018-04-02T09:23:51.092Z,70.21
2018-04-02T09:24:51.223Z,69.93
2018-04-02T09:25:51.124Z,69.48
2018-04-02T09:26:51.147Z,68.34
2018-04-02T09:27:51.172Z,67.48
2018-04-02T09:28:51.196Z,67.2
2018-04-02T09:29:51.230Z,67.8
2018-04-02T09:30:51.244Z,67.33
2018-04-02T09:31:51.273Z,67
2018-04-02T09:32:51.300Z,67.77
2018-04-02T09:33:51.317Z,67.64
2018-04-02T09:35:51.369Z,66.34
2018-04-02T09:36:51.392Z,66.05
2018-04-02T09:37:51.416Z,66.15
2018-04-02T09:38:51.489Z,66.18
2018-04-02T09:39:51.462Z,65.17
2018-04-02T09:41:06.147Z,64.21
2018-04-02T09:41:51.517Z,64.47
2018-04-02T09:42:51.536Z,64.31
2018-04-02T09:44:51.584Z,63.92
2018-04-02T09:45:51.613Z,63.35
2018-04-02T09:46:51.633Z,62.78
2018-04-02T09:49:51.713Z,63.16
2018-04-02T09:50:51.731Z,62.78
2018-04-02T09:51:51.754Z,63.07
2018-04-02T09:52:51.780Z,62.46
2018-04-02T09:53:51.816Z,62.08
2018-04-02T09:54:51.833Z,64.28
2018-04-02T09:55:51.859Z,63.07
2018-04-02T09:57:06.537Z,61.73
2018-04-02T09:57:51.904Z,62.21
2018-04-02T09:58:51.926Z,60.49
2018-04-02T09:59:51.950Z,59.53
2018-04-02T10:00:51.976Z,59.51
2018-04-02T10:01:51.997Z,59.51
2018-04-02T10:02:52.024Z,60.55
2018-04-02T10:04:52.327Z,59.34
2018-04-02T10:05:52.148Z,58.97
2018-04-02T10:06:52.127Z,59.63
2018-04-02T10:07:51.885Z,59.25
2018-04-02T10:08:52.168Z,58.97
2018-04-02T10:09:52.215Z,60.39
2018-04-02T10:10:52.217Z,60.3
2018-04-02T10:11:51.982Z,59.82
2018-04-02T10:13:06.932Z,59.25
2018-04-02T10:13:52.080Z,58.87
2018-04-02T10:14:52.318Z,59.06
2018-04-02T10:15:52.341Z,58.68
2018-04-02T10:16:52.361Z,58.97
2018-04-02T10:17:52.127Z,59.16
2018-04-02T10:18:52.418Z,59.92
2018-04-02T10:19:52.176Z,58.87
2018-04-02T10:20:52.199Z,58.84
2018-04-02T10:21:52.483Z,59.67
2018-04-02T10:22:52.508Z,59.28
2018-04-02T10:23:52.659Z,60.05
2018-04-02T10:24:52.554Z,60.4
2018-04-02T10:25:52.579Z,61.54
2018-04-02T10:26:52.605Z,61.16
2018-04-02T10:27:52.628Z,61.35
2018-04-02T10:29:07.311Z,61.7
2018-04-02T10:29:52.774Z,62.85
2018-04-02T10:30:52.706Z,62.08
2018-04-02T10:31:52.721Z,61.32
2018-04-02T10:32:52.751Z,62.08
2018-04-02T10:33:52.511Z,61.8
2018-04-02T10:34:52.795Z,62.75
2018-04-02T10:36:52.840Z,60.63
2018-04-02T10:37:52.865Z,61.29
2018-04-02T10:38:52.628Z,64.05
2018-04-02T10:39:52.915Z,62.85
2018-04-02T10:40:52.936Z,63.23
2018-04-02T10:41:52.970Z,64.08
2018-04-02T10:42:52.989Z,63.7
2018-04-02T10:44:07.663Z,64.56
2018-04-02T10:44:53.025Z,63.7
2018-04-02T10:45:53.048Z,62.08
2018-04-02T10:46:53.071Z,62.46
2018-04-02T10:47:53.095Z,63.04
2018-04-02T10:48:52.858Z,62.94
2018-04-02T10:49:53.149Z,64.18
2018-04-02T10:50:53.160Z,63.89
2018-04-02T10:51:53.185Z,63.89
2018-04-02T10:53:53.257Z,63.8
2018-04-02T10:54:52.992Z,63.8
2018-04-02T10:55:53.277Z,62.85
2018-04-02T10:56:53.295Z,64.28
2018-04-02T10:57:53.319Z,64.18
2018-04-02T10:58:53.339Z,64.28
2018-04-02T10:59:53.142Z,64.18
2018-04-02T11:00:53.382Z,63.99
2018-04-02T11:01:53.404Z,64.94
2018-04-02T11:02:53.427Z,63.89
2018-04-02T11:03:53.447Z,64.18
2018-04-02T11:04:53.469Z,65.32
2018-04-02T11:05:53.233Z,64.84
2018-04-02T11:08:53.557Z,63.45
2018-04-02T11:09:53.578Z,61.9
2018-04-02T11:10:53.600Z,62.75
2018-04-02T11:11:53.620Z,63.8
2018-04-02T11:12:53.383Z,64.21
2018-04-02T11:13:53.404Z,62.21
2018-04-02T11:14:53.685Z,60.4
2018-04-02T11:16:08.365Z,61.7
2018-04-02T11:16:53.728Z,61.45
2018-04-02T11:17:53.788Z,60.59
2018-04-02T11:18:53.770Z,62.21
2018-04-02T11:19:53.791Z,60.4
2018-04-02T11:20:53.814Z,61.22
2018-04-02T11:21:53.575Z,59.8
2018-04-02T11:22:53.610Z,61.13
2018-04-02T11:23:53.618Z,61.32
2018-04-02T11:24:53.898Z,61.04
2018-04-02T11:25:53.920Z,60.66
2018-04-02T11:26:53.941Z,59.03
2018-04-02T11:27:53.964Z,60.24
2018-04-02T11:28:53.726Z,60.18
2018-04-02T11:29:54.005Z,59.7
2018-04-02T11:30:53.767Z,59.61
2018-04-02T11:32:08.706Z,59.23
2018-04-02T11:32:54.168Z,59.99
2018-04-02T11:33:53.830Z,59.8
2018-04-02T11:34:54.109Z,61.04
2018-04-02T11:35:53.940Z,60.08
2018-04-02T11:36:54.151Z,58.94
2018-04-02T11:37:54.179Z,59.51
2018-04-02T11:38:54.196Z,59.13
2018-04-02T11:39:54.217Z,60.75
2018-04-02T11:40:54.236Z,60.3
2018-04-02T11:41:54.264Z,60.78
2018-04-02T11:42:54.338Z,60.78
2018-04-02T11:43:54.298Z,60.02
2018-04-02T11:44:54.318Z,59.06
2018-04-02T11:45:54.085Z,58.87
2018-04-02T11:46:54.375Z,60.02
2018-04-02T11:48:09.092Z,59.26
2018-04-02T11:48:54.403Z,59.13
2018-04-02T11:49:54.165Z,58.84
2018-04-02T11:50:54.444Z,58.94
2018-04-02T11:51:54.465Z,59.13
2018-04-02T11:52:54.485Z,58.94
2018-04-02T11:53:54.508Z,60.08
2018-04-02T11:55:54.555Z,60.56
2018-04-02T11:56:54.569Z,61.51
2018-04-02T11:58:54.612Z,60.59
2018-04-02T11:59:54.631Z,59.26
2018-04-02T12:00:54.394Z,58.4
2018-04-02T12:01:54.674Z,58.78
2018-04-02T12:02:54.694Z,58.4
2018-04-02T12:04:09.374Z,58.97
2018-04-02T12:04:54.734Z,59.35
2018-04-02T12:05:54.759Z,59.64
2018-04-02T12:06:54.777Z,60.18
2018-04-02T12:07:54.798Z,59.74
2018-04-02T12:08:54.818Z,61.25
2018-04-02T12:09:54.847Z,59.74
2018-04-02T12:10:54.859Z,59.45
2018-04-02T12:11:54.881Z,59.89
2018-04-02T12:12:54.903Z,60.46
2018-04-02T12:13:54.663Z,59.74
2018-04-02T12:14:54.945Z,60.3
2018-04-02T12:15:54.963Z,59.83
2018-04-02T12:16:54.985Z,59.45
2018-04-02T12:17:54.847Z,58.97
2018-04-02T12:19:09.686Z,59.45
2018-04-02T12:19:55.047Z,59.74
2018-04-02T12:20:55.196Z,60.49
2018-04-02T12:21:55.090Z,59.76
2018-04-02T12:22:54.851Z,59.67
2018-04-02T12:23:55.131Z,59.38
2018-04-02T12:24:55.150Z,60.24
2018-04-02T12:25:55.173Z,58.75
2018-04-02T12:26:55.194Z,59.67
2018-04-02T12:27:54.985Z,58.81
2018-04-02T12:29:55.264Z,59.45
2018-04-02T12:30:55.018Z,59.57
2018-04-02T12:31:55.295Z,58.91
2018-04-02T12:32:55.319Z,58.14
2018-04-02T12:33:55.343Z,58.69
2018-04-02T12:34:55.103Z,58.97
2018-04-02T12:35:55.381Z,59.64
2018-04-02T12:36:55.403Z,59.64
2018-04-02T12:37:55.424Z,58.5
2018-04-02T12:38:55.445Z,59.06
2018-04-02T12:39:55.463Z,58.78
2018-04-02T12:40:55.487Z,58.59
2018-04-02T12:41:55.506Z,58.4
2018-04-02T12:42:55.267Z,59.45
2018-04-02T12:43:55.288Z,58.87
2018-04-02T12:44:55.569Z,59.45
2018-04-02T12:45:55.620Z,58.97
2018-04-02T12:46:55.608Z,59.26
2018-04-02T12:47:55.370Z,59.57
2018-04-02T12:48:55.391Z,58.87
2018-04-02T12:49:55.674Z,58.78
2018-04-02T12:51:10.352Z,59.64
2018-04-02T12:51:55.788Z,59.35
2018-04-02T12:52:55.733Z,59.45
2018-04-02T12:53:55.763Z,59.54
2018-04-02T12:54:55.783Z,59.74
2018-04-02T12:55:55.795Z,60.59
2018-04-02T12:57:55.837Z,60.3
2018-04-02T12:58:55.904Z,60.4
2018-04-02T12:59:55.878Z,60.3
2018-04-02T13:00:55.897Z,60.02
2018-04-02T13:01:55.918Z,59.74
2018-04-02T13:02:55.941Z,60.69
2018-04-02T13:03:55.701Z,59.64
2018-04-02T13:04:55.990Z,59.16
2018-04-02T13:05:56.002Z,59.16
2018-04-02T13:07:10.680Z,59.35
2018-04-02T13:07:56.043Z,59.45
2018-04-02T13:08:56.064Z,59.35
2018-04-02T13:09:56.084Z,58.59
2018-04-02T13:10:55.845Z,58.94
2018-04-02T13:11:56.132Z,59.06
2018-04-02T13:12:56.144Z,59.03
2018-04-02T13:15:55.950Z,59.06
2018-04-02T13:16:56.226Z,59.45
2018-04-02T13:17:56.247Z,60.69
2018-04-02T13:18:56.889Z,59.54
2018-04-02T13:19:56.295Z,59.89
2018-04-02T13:20:56.313Z,60.18
2018-04-02T13:21:56.328Z,60.11
2018-04-02T13:23:11.008Z,59.74
2018-04-02T13:23:56.368Z,60.02
2018-04-02T13:24:56.393Z,60.3
2018-04-02T13:25:56.410Z,59.92
2018-04-02T13:26:56.430Z,59.92
2018-04-02T13:27:56.456Z,59.83
2018-04-02T13:30:56.541Z,61.16
2018-04-02T13:31:56.538Z,60.4
2018-04-02T13:32:56.553Z,60.11
2018-04-02T13:33:56.588Z,59.35
2018-04-02T13:34:56.598Z,59.26
2018-04-02T13:35:56.355Z,59.35
2018-04-02T13:36:56.638Z,58.69
2018-04-02T13:37:56.740Z,58.59
2018-04-02T13:39:11.334Z,59.26
2018-04-02T13:39:56.697Z,60.21
2018-04-02T13:40:56.741Z,59.35
2018-04-02T13:41:56.477Z,61.35
2018-04-02T13:42:56.501Z,61.67
2018-04-02T13:43:56.782Z,60.52
2018-04-02T13:44:56.797Z,60.43
2018-04-02T13:45:56.824Z,59.57
2018-04-02T13:46:56.839Z,58.81
2018-04-02T13:47:56.860Z,59.26
2018-04-02T13:48:56.880Z,60.4
2018-04-02T13:49:56.911Z,60.43